sensor_id;sensor_type;location;lat;lon;timestamp;temperature;humidity
15296;DHT22;7749;49.964;7.890;2023-04-03T00:01:20;6.60;1.70
15296;DHT22;7749;49.964;7.890;2023-04-03T00:03:48;6.60;79.30
15296;DHT22;7749;49.964;7.890;2023-04-03T00:06:15;6.60;68.80
15296;DHT22;7749;49.964;7.890;2023-04-03T00:08:43;6.60;99.90
15296;DHT22;7749;49.964;7.890;2023-04-03T00:11:11;6.60;99.90
15296;DHT22;7749;49.964;7.890;2023-04-03T00:13:39;6.60;99.90
15296;DHT22;7749;49.964;7.890;2023-04-03T00:16:08;6.70;99.90
15296;DHT22;7749;49.964;7.890;2023-04-03T00:18:38;6.70;99.90
15296;DHT22;7749;49.964;7.890;2023-04-03T00:21:07;6.70;99.90
15296;DHT22;7749;49.964;7.890;2023-04-03T00:23:35;6.50;1.00
15296;DHT22;7749;49.964;7.890;2023-04-03T00:26:03;6.50;1.00
15296;DHT22;7749;49.964;7.890;2023-04-03T00:28:31;6.40;1.00
15296;DHT22;7749;49.964;7.890;2023-04-03T00:30:58;6.40;99.90
15296;DHT22;7749;49.964;7.890;2023-04-03T00:33:26;6.30;1.00
15296;DHT22;7749;49.964;7.890;2023-04-03T00:35:54;6.30;1.00
15296;DHT22;7749;49.964;7.890;2023-04-03T00:38:21;6.30;1.00
15296;DHT22;7749;49.964;7.890;2023-04-03T00:40:50;6.30;1.00
15296;DHT22;7749;49.964;7.890;2023-04-03T00:43:20;6.20;99.90
15296;DHT22;7749;49.964;7.890;2023-04-03T00:45:54;6.10;99.90
15296;DHT22;7749;49.964;7.890;2023-04-03T00:48:29;6.10;99.90
15296;DHT22;7749;49.964;7.890;2023-04-03T00:50:58;6.10;99.90
15296;DHT22;7749;49.964;7.890;2023-04-03T00:53:44;6.20;99.90
15296;DHT22;7749;49.964;7.890;2023-04-03T00:56:15;6.20;1.00
15296;DHT22;7749;49.964;7.890;2023-04-03T00:58:54;6.20;99.90
15296;DHT22;7749;49.964;7.890;2023-04-03T01:01:25;6.20;99.90
15296;DHT22;7749;49.964;7.890;2023-04-03T01:03:53;6.20;1.00
15296;DHT22;7749;49.964;7.890;2023-04-03T01:06:29;6.20;1.00
15296;DHT22;7749;49.964;7.890;2023-04-03T01:08:59;6.30;99.90
15296;DHT22;7749;49.964;7.890;2023-04-03T01:11:27;6.30;1.00
15296;DHT22;7749;49.964;7.890;2023-04-03T01:13:55;6.30;1.00
15296;DHT22;7749;49.964;7.890;2023-04-03T01:16:23;6.30;99.90
15296;DHT22;7749;49.964;7.890;2023-04-03T01:18:50;6.30;1.00
15296;DHT22;7749;49.964;7.890;2023-04-03T01:21:49;6.40;1.00
15296;DHT22;7749;49.964;7.890;2023-04-03T01:24:35;6.30;99.90
15296;DHT22;7749;49.964;7.890;2023-04-03T01:27:05;6.10;1.00
15296;DHT22;7749;49.964;7.890;2023-04-03T01:29:33;6.10;99.90
15296;DHT22;7749;49.964;7.890;2023-04-03T01:32:02;6.10;1.00
15296;DHT22;7749;49.964;7.890;2023-04-03T01:34:30;6.10;1.00
15296;DHT22;7749;49.964;7.890;2023-04-03T01:36:58;6.10;99.90
15296;DHT22;7749;49.964;7.890;2023-04-03T01:39:26;6.10;1.00
15296;DHT22;7749;49.964;7.890;2023-04-03T01:41:54;6.20;1.00
15296;DHT22;7749;49.964;7.890;2023-04-03T01:44:22;6.20;1.00
15296;DHT22;7749;49.964;7.890;2023-04-03T01:46:49;6.10;1.00
15296;DHT22;7749;49.964;7.890;2023-04-03T01:49:17;6.10;1.00
15296;DHT22;7749;49.964;7.890;2023-04-03T01:51:44;6.00;1.00
15296;DHT22;7749;49.964;7.890;2023-04-03T01:54:12;6.10;1.00
15296;DHT22;7749;49.964;7.890;2023-04-03T01:56:39;6.10;1.00
15296;DHT22;7749;49.964;7.890;2023-04-03T01:59:07;6.10;1.00
15296;DHT22;7749;49.964;7.890;2023-04-03T02:01:35;6.10;1.00
15296;DHT22;7749;49.964;7.890;2023-04-03T02:04:03;6.10;1.00
15296;DHT22;7749;49.964;7.890;2023-04-03T02:06:31;6.10;1.00
15296;DHT22;7749;49.964;7.890;2023-04-03T02:08:59;6.10;1.00
15296;DHT22;7749;49.964;7.890;2023-04-03T02:11:26;6.20;1.00
15296;DHT22;7749;49.964;7.890;2023-04-03T02:13:54;6.20;1.00
15296;DHT22;7749;49.964;7.890;2023-04-03T02:16:22;6.20;99.90
15296;DHT22;7749;49.964;7.890;2023-04-03T02:18:49;6.20;1.00
15296;DHT22;7749;49.964;7.890;2023-04-03T02:21:17;6.30;1.00
15296;DHT22;7749;49.964;7.890;2023-04-03T02:23:45;6.40;1.00
15296;DHT22;7749;49.964;7.890;2023-04-03T02:26:14;6.40;1.00
15296;DHT22;7749;49.964;7.890;2023-04-03T02:28:43;6.40;99.90
15296;DHT22;7749;49.964;7.890;2023-04-03T02:31:10;6.50;99.90
15296;DHT22;7749;49.964;7.890;2023-04-03T02:33:38;6.40;1.00
15296;DHT22;7749;49.964;7.890;2023-04-03T02:36:07;6.50;1.00
15296;DHT22;7749;49.964;7.890;2023-04-03T02:38:35;6.50;99.90
15296;DHT22;7749;49.964;7.890;2023-04-03T02:41:08;6.50;99.90
15296;DHT22;7749;49.964;7.890;2023-04-03T02:43:37;6.50;99.90
15296;DHT22;7749;49.964;7.890;2023-04-03T02:46:05;6.50;99.90
15296;DHT22;7749;49.964;7.890;2023-04-03T02:48:33;6.50;1.00
15296;DHT22;7749;49.964;7.890;2023-04-03T02:51:00;6.50;1.00
15296;DHT22;7749;49.964;7.890;2023-04-03T02:53:28;6.50;1.00
15296;DHT22;7749;49.964;7.890;2023-04-03T02:55:56;6.50;1.00
15296;DHT22;7749;49.964;7.890;2023-04-03T02:58:26;6.40;1.00
15296;DHT22;7749;49.964;7.890;2023-04-03T03:00:54;6.50;1.00
15296;DHT22;7749;49.964;7.890;2023-04-03T03:03:21;6.50;1.00
15296;DHT22;7749;49.964;7.890;2023-04-03T03:05:50;6.50;1.00
15296;DHT22;7749;49.964;7.890;2023-04-03T03:08:27;6.50;1.00
15296;DHT22;7749;49.964;7.890;2023-04-03T03:10:55;6.50;1.00
15296;DHT22;7749;49.964;7.890;2023-04-03T03:13:22;6.50;1.00
15296;DHT22;7749;49.964;7.890;2023-04-03T03:15:50;6.50;1.00
15296;DHT22;7749;49.964;7.890;2023-04-03T03:18:18;6.50;1.00
15296;DHT22;7749;49.964;7.890;2023-04-03T03:20:45;6.50;1.00
15296;DHT22;7749;49.964;7.890;2023-04-03T03:23:13;6.40;1.00
15296;DHT22;7749;49.964;7.890;2023-04-03T03:25:41;6.50;1.00
15296;DHT22;7749;49.964;7.890;2023-04-03T03:28:08;6.50;1.00
15296;DHT22;7749;49.964;7.890;2023-04-03T03:30:36;6.50;1.00
15296;DHT22;7749;49.964;7.890;2023-04-03T03:33:04;6.60;1.00
15296;DHT22;7749;49.964;7.890;2023-04-03T03:35:33;6.50;99.90
15296;DHT22;7749;49.964;7.890;2023-04-03T03:38:00;6.50;99.90
15296;DHT22;7749;49.964;7.890;2023-04-03T03:40:28;6.50;20.70
15296;DHT22;7749;49.964;7.890;2023-04-03T03:42:56;6.60;99.90
15296;DHT22;7749;49.964;7.890;2023-04-03T03:45:23;6.40;52.60
15296;DHT22;7749;49.964;7.890;2023-04-03T03:47:51;6.40;1.00
15296;DHT22;7749;49.964;7.890;2023-04-03T03:50:19;6.40;1.00
15296;DHT22;7749;49.964;7.890;2023-04-03T03:52:46;6.40;1.00
15296;DHT22;7749;49.964;7.890;2023-04-03T03:55:14;6.40;1.00
15296;DHT22;7749;49.964;7.890;2023-04-03T03:57:42;6.40;1.00
15296;DHT22;7749;49.964;7.890;2023-04-03T04:00:10;6.40;99.90
15296;DHT22;7749;49.964;7.890;2023-04-03T04:02:37;6.40;99.90
15296;DHT22;7749;49.964;7.890;2023-04-03T04:05:06;6.30;99.90
15296;DHT22;7749;49.964;7.890;2023-04-03T04:07:33;6.30;1.00
15296;DHT22;7749;49.964;7.890;2023-04-03T04:10:02;6.30;1.00
15296;DHT22;7749;49.964;7.890;2023-04-03T04:12:30;6.20;99.90
15296;DHT22;7749;49.964;7.890;2023-04-03T04:14:58;6.20;99.90
15296;DHT22;7749;49.964;7.890;2023-04-03T04:17:25;6.20;1.00
15296;DHT22;7749;49.964;7.890;2023-04-03T04:19:53;6.20;1.00
15296;DHT22;7749;49.964;7.890;2023-04-03T04:22:21;6.20;1.00
15296;DHT22;7749;49.964;7.890;2023-04-03T04:24:48;6.10;99.90
15296;DHT22;7749;49.964;7.890;2023-04-03T04:27:16;6.20;1.00
15296;DHT22;7749;49.964;7.890;2023-04-03T04:29:44;6.10;1.00
15296;DHT22;7749;49.964;7.890;2023-04-03T04:32:11;6.10;1.00
15296;DHT22;7749;49.964;7.890;2023-04-03T04:34:39;6.00;99.90
15296;DHT22;7749;49.964;7.890;2023-04-03T04:37:07;6.00;1.00
15296;DHT22;7749;49.964;7.890;2023-04-03T04:39:34;6.00;1.00
15296;DHT22;7749;49.964;7.890;2023-04-03T04:42:03;5.90;99.90
15296;DHT22;7749;49.964;7.890;2023-04-03T04:44:31;5.80;1.00
15296;DHT22;7749;49.964;7.890;2023-04-03T04:46:58;5.80;99.90
15296;DHT22;7749;49.964;7.890;2023-04-03T04:49:26;5.70;1.00
15296;DHT22;7749;49.964;7.890;2023-04-03T04:51:53;5.70;99.90
15296;DHT22;7749;49.964;7.890;2023-04-03T04:54:21;5.60;1.00
15296;DHT22;7749;49.964;7.890;2023-04-03T04:56:49;5.60;1.00
15296;DHT22;7749;49.964;7.890;2023-04-03T04:59:16;5.60;1.00
15296;DHT22;7749;49.964;7.890;2023-04-03T05:01:47;5.60;99.90
15296;DHT22;7749;49.964;7.890;2023-04-03T05:04:15;5.60;99.90
15296;DHT22;7749;49.964;7.890;2023-04-03T05:06:42;5.60;99.90
15296;DHT22;7749;49.964;7.890;2023-04-03T05:09:10;5.60;99.90
15296;DHT22;7749;49.964;7.890;2023-04-03T05:11:38;5.50;1.00
15296;DHT22;7749;49.964;7.890;2023-04-03T05:14:05;5.50;1.00
15296;DHT22;7749;49.964;7.890;2023-04-03T05:16:34;5.50;1.00
15296;DHT22;7749;49.964;7.890;2023-04-03T05:19:02;5.50;1.00
15296;DHT22;7749;49.964;7.890;2023-04-03T05:21:30;5.40;99.90
15296;DHT22;7749;49.964;7.890;2023-04-03T05:24:00;5.40;99.90
15296;DHT22;7749;49.964;7.890;2023-04-03T05:26:31;5.50;1.00
15296;DHT22;7749;49.964;7.890;2023-04-03T05:28:58;5.40;18.60
15296;DHT22;7749;49.964;7.890;2023-04-03T05:31:26;5.40;1.00
15296;DHT22;7749;49.964;7.890;2023-04-03T05:33:57;5.50;1.00
15296;DHT22;7749;49.964;7.890;2023-04-03T05:36:37;5.50;99.90
15296;DHT22;7749;49.964;7.890;2023-04-03T05:39:05;5.60;99.90
15296;DHT22;7749;49.964;7.890;2023-04-03T05:41:33;5.60;99.90
15296;DHT22;7749;49.964;7.890;2023-04-03T05:44:00;5.60;95.50
15296;DHT22;7749;49.964;7.890;2023-04-03T05:46:28;5.70;1.00
15296;DHT22;7749;49.964;7.890;2023-04-03T05:48:56;5.70;1.00
15296;DHT22;7749;49.964;7.890;2023-04-03T05:51:25;5.80;1.00
15296;DHT22;7749;49.964;7.890;2023-04-03T05:54:21;5.80;1.00
15296;DHT22;7749;49.964;7.890;2023-04-03T05:56:46;6.00;99.90
15296;DHT22;7749;49.964;7.890;2023-04-03T05:59:14;6.40;1.00
15296;DHT22;7749;49.964;7.890;2023-04-03T06:01:42;6.60;99.90
15296;DHT22;7749;49.964;7.890;2023-04-03T06:04:10;6.80;1.00
15296;DHT22;7749;49.964;7.890;2023-04-03T06:06:52;7.00;99.90
15296;DHT22;7749;49.964;7.890;2023-04-03T06:09:22;6.90;52.20
15296;DHT22;7749;49.964;7.890;2023-04-03T06:11:50;6.90;1.00
15296;DHT22;7749;49.964;7.890;2023-04-03T06:14:19;7.00;1.00
15296;DHT22;7749;49.964;7.890;2023-04-03T06:16:47;7.00;1.00
15296;DHT22;7749;49.964;7.890;2023-04-03T06:19:14;7.10;1.00
15296;DHT22;7749;49.964;7.890;2023-04-03T06:21:43;7.10;99.90
15296;DHT22;7749;49.964;7.890;2023-04-03T06:24:15;7.20;99.90
15296;DHT22;7749;49.964;7.890;2023-04-03T06:26:44;7.30;99.90
15296;DHT22;7749;49.964;7.890;2023-04-03T06:29:11;7.30;99.90
15296;DHT22;7749;49.964;7.890;2023-04-03T06:31:39;7.30;83.90
15296;DHT22;7749;49.964;7.890;2023-04-03T06:34:07;7.30;1.00
15296;DHT22;7749;49.964;7.890;2023-04-03T06:36:39;7.30;1.00
15296;DHT22;7749;49.964;7.890;2023-04-03T06:39:08;7.30;1.00
15296;DHT22;7749;49.964;7.890;2023-04-03T06:41:36;7.20;1.00
15296;DHT22;7749;49.964;7.890;2023-04-03T06:44:04;7.20;1.00
15296;DHT22;7749;49.964;7.890;2023-04-03T06:46:32;7.00;1.00
15296;DHT22;7749;49.964;7.890;2023-04-03T06:49:00;7.00;1.00
15296;DHT22;7749;49.964;7.890;2023-04-03T06:51:29;6.90;1.00
15296;DHT22;7749;49.964;7.890;2023-04-03T06:53:58;6.90;1.00
15296;DHT22;7749;49.964;7.890;2023-04-03T06:56:27;7.00;1.00
15296;DHT22;7749;49.964;7.890;2023-04-03T06:58:56;7.10;1.00
15296;DHT22;7749;49.964;7.890;2023-04-03T07:01:26;7.10;1.00
15296;DHT22;7749;49.964;7.890;2023-04-03T07:03:56;7.10;1.00
15296;DHT22;7749;49.964;7.890;2023-04-03T07:06:24;7.10;1.00
15296;DHT22;7749;49.964;7.890;2023-04-03T07:08:54;7.40;1.00
15296;DHT22;7749;49.964;7.890;2023-04-03T07:11:22;7.40;1.00
15296;DHT22;7749;49.964;7.890;2023-04-03T07:13:50;7.50;1.00
15296;DHT22;7749;49.964;7.890;2023-04-03T07:16:18;7.60;99.90
15296;DHT22;7749;49.964;7.890;2023-04-03T07:18:46;7.70;99.90
15296;DHT22;7749;49.964;7.890;2023-04-03T07:21:14;7.70;99.90
15296;DHT22;7749;49.964;7.890;2023-04-03T07:23:41;7.70;99.90
15296;DHT22;7749;49.964;7.890;2023-04-03T07:26:09;7.70;99.90
15296;DHT22;7749;49.964;7.890;2023-04-03T07:28:37;7.80;99.90
15296;DHT22;7749;49.964;7.890;2023-04-03T07:31:10;7.80;99.90
15296;DHT22;7749;49.964;7.890;2023-04-03T07:33:41;7.80;99.90
15296;DHT22;7749;49.964;7.890;2023-04-03T07:36:10;7.90;99.90
15296;DHT22;7749;49.964;7.890;2023-04-03T07:38:38;8.00;99.70
15296;DHT22;7749;49.964;7.890;2023-04-03T07:41:06;8.00;80.10
15296;DHT22;7749;49.964;7.890;2023-04-03T07:43:34;8.00;95.90
15296;DHT22;7749;49.964;7.890;2023-04-03T07:46:04;7.90;38.70
15296;DHT22;7749;49.964;7.890;2023-04-03T07:48:32;7.90;1.00
15296;DHT22;7749;49.964;7.890;2023-04-03T07:51:00;7.80;3.70
15296;DHT22;7749;49.964;7.890;2023-04-03T07:53:29;7.80;1.00
15296;DHT22;7749;49.964;7.890;2023-04-03T07:55:58;7.60;1.00
15296;DHT22;7749;49.964;7.890;2023-04-03T07:58:26;7.70;1.00
15296;DHT22;7749;49.964;7.890;2023-04-03T08:00:54;7.60;1.00
15296;DHT22;7749;49.964;7.890;2023-04-03T08:03:22;7.80;1.00
15296;DHT22;7749;49.964;7.890;2023-04-03T08:05:50;7.60;1.00
15296;DHT22;7749;49.964;7.890;2023-04-03T08:08:22;7.60;1.00
15296;DHT22;7749;49.964;7.890;2023-04-03T08:10:52;7.80;1.00
15296;DHT22;7749;49.964;7.890;2023-04-03T08:13:21;7.90;1.00
15296;DHT22;7749;49.964;7.890;2023-04-03T08:15:49;7.80;1.00
15296;DHT22;7749;49.964;7.890;2023-04-03T08:18:18;8.10;1.00
15296;DHT22;7749;49.964;7.890;2023-04-03T08:20:48;8.00;1.00
15296;DHT22;7749;49.964;7.890;2023-04-03T08:23:16;8.10;1.00
15296;DHT22;7749;49.964;7.890;2023-04-03T08:25:46;8.20;1.00
15296;DHT22;7749;49.964;7.890;2023-04-03T08:28:14;8.20;1.00
15296;DHT22;7749;49.964;7.890;2023-04-03T08:30:42;8.10;1.00
15296;DHT22;7749;49.964;7.890;2023-04-03T08:33:11;8.20;1.00
15296;DHT22;7749;49.964;7.890;2023-04-03T08:35:39;8.30;1.00
15296;DHT22;7749;49.964;7.890;2023-04-03T08:38:09;8.20;1.00
15296;DHT22;7749;49.964;7.890;2023-04-03T08:40:38;8.20;1.00
15296;DHT22;7749;49.964;7.890;2023-04-03T08:43:22;8.40;1.00
15296;DHT22;7749;49.964;7.890;2023-04-03T08:45:55;8.60;1.00
15296;DHT22;7749;49.964;7.890;2023-04-03T08:48:39;8.80;1.00
15296;DHT22;7749;49.964;7.890;2023-04-03T08:51:17;8.80;1.00
15296;DHT22;7749;49.964;7.890;2023-04-03T08:54:15;9.00;1.00
15296;DHT22;7749;49.964;7.890;2023-04-03T08:56:45;8.90;1.00
15296;DHT22;7749;49.964;7.890;2023-04-03T08:59:18;9.00;1.00
15296;DHT22;7749;49.964;7.890;2023-04-03T09:01:52;9.30;1.00
15296;DHT22;7749;49.964;7.890;2023-04-03T09:04:20;9.50;1.00
15296;DHT22;7749;49.964;7.890;2023-04-03T09:06:55;9.70;1.00
15296;DHT22;7749;49.964;7.890;2023-04-03T09:09:33;9.80;1.00
15296;DHT22;7749;49.964;7.890;2023-04-03T09:12:23;10.10;1.00
15296;DHT22;7749;49.964;7.890;2023-04-03T09:24:09;10.30;1.00
15296;DHT22;7749;49.964;7.890;2023-04-03T09:28:57;10.60;1.00
15296;DHT22;7749;49.964;7.890;2023-04-03T09:31:31;10.60;1.00
15296;DHT22;7749;49.964;7.890;2023-04-03T09:34:07;10.20;1.00
15296;DHT22;7749;49.964;7.890;2023-04-03T09:36:42;10.10;1.00
15296;DHT22;7749;49.964;7.890;2023-04-03T09:39:14;10.20;1.00
15296;DHT22;7749;49.964;7.890;2023-04-03T09:42:01;10.20;1.00
15296;DHT22;7749;49.964;7.890;2023-04-03T09:44:34;10.10;1.00
15296;DHT22;7749;49.964;7.890;2023-04-03T09:47:19;9.80;1.00
15296;DHT22;7749;49.964;7.890;2023-04-03T09:49:50;10.10;1.00
15296;DHT22;7749;49.964;7.890;2023-04-03T09:52:26;10.30;1.00
15296;DHT22;7749;49.964;7.890;2023-04-03T09:54:54;10.40;1.00
15296;DHT22;7749;49.964;7.890;2023-04-03T09:57:34;10.50;1.00
15296;DHT22;7749;49.964;7.890;2023-04-03T10:00:04;10.30;1.00
15296;DHT22;7749;49.964;7.890;2023-04-03T10:02:39;10.20;1.00
15296;DHT22;7749;49.964;7.890;2023-04-03T10:10:47;10.70;1.00
15296;DHT22;7749;49.964;7.890;2023-04-03T10:13:17;10.70;1.00
15296;DHT22;7749;49.964;7.890;2023-04-03T10:16:06;10.60;1.00
15296;DHT22;7749;49.964;7.890;2023-04-03T10:18:58;10.70;1.00
15296;DHT22;7749;49.964;7.890;2023-04-03T10:24:21;10.60;1.00
15296;DHT22;7749;49.964;7.890;2023-04-03T10:27:13;10.50;1.00
15296;DHT22;7749;49.964;7.890;2023-04-03T10:29:57;10.50;1.00
15296;DHT22;7749;49.964;7.890;2023-04-03T10:41:38;10.60;1.00
15296;DHT22;7749;49.964;7.890;2023-04-03T10:47:27;10.80;1.00
15296;DHT22;7749;49.964;7.890;2023-04-03T10:55:53;10.60;1.00
15296;DHT22;7749;49.964;7.890;2023-04-03T10:58:34;10.60;1.00
15296;DHT22;7749;49.964;7.890;2023-04-03T11:01:08;10.70;1.00
15296;DHT22;7749;49.964;7.890;2023-04-03T11:03:45;10.70;1.00
15296;DHT22;7749;49.964;7.890;2023-04-03T11:06:16;10.70;1.00
15296;DHT22;7749;49.964;7.890;2023-04-03T11:08:55;10.90;1.00
15296;DHT22;7749;49.964;7.890;2023-04-03T11:11:27;12.30;1.00
15296;DHT22;7749;49.964;7.890;2023-04-03T11:14:14;15.00;1.00
15296;DHT22;7749;49.964;7.890;2023-04-03T11:16:47;16.90;1.00
15296;DHT22;7749;49.964;7.890;2023-04-03T11:24:38;18.80;99.90
15296;DHT22;7749;49.964;7.890;2023-04-03T11:27:17;20.20;99.90
15296;DHT22;7749;49.964;7.890;2023-04-03T11:29:50;20.40;99.90
15296;DHT22;7749;49.964;7.890;2023-04-03T11:35:10;20.90;99.90
15296;DHT22;7749;49.964;7.890;2023-04-03T11:37:43;21.30;99.90
15296;DHT22;7749;49.964;7.890;2023-04-03T11:42:46;22.10;99.90
15296;DHT22;7749;49.964;7.890;2023-04-03T11:47:59;21.50;99.90
15296;DHT22;7749;49.964;7.890;2023-04-03T11:50:44;21.30;99.90
15296;DHT22;7749;49.964;7.890;2023-04-03T11:58:22;22.40;99.90
15296;DHT22;7749;49.964;7.890;2023-04-03T12:00:51;22.30;99.90
15296;DHT22;7749;49.964;7.890;2023-04-03T12:46:43;23.00;99.90
15296;DHT22;7749;49.964;7.890;2023-04-03T12:51:56;23.50;99.90
15296;DHT22;7749;49.964;7.890;2023-04-03T12:57:17;22.60;99.90
15296;DHT22;7749;49.964;7.890;2023-04-03T12:59:46;23.20;99.90
15296;DHT22;7749;49.964;7.890;2023-04-03T13:02:26;22.60;99.90
15296;DHT22;7749;49.964;7.890;2023-04-03T13:04:57;23.30;99.90
15296;DHT22;7749;49.964;7.890;2023-04-03T13:12:29;24.20;99.90
15296;DHT22;7749;49.964;7.890;2023-04-03T13:15:01;23.40;99.90
15296;DHT22;7749;49.964;7.890;2023-04-03T13:17:31;24.00;99.90
15296;DHT22;7749;49.964;7.890;2023-04-03T13:20:34;24.90;99.90
15296;DHT22;7749;49.964;7.890;2023-04-03T13:23:08;23.90;99.90
15296;DHT22;7749;49.964;7.890;2023-04-03T13:25:43;24.60;99.90
15296;DHT22;7749;49.964;7.890;2023-04-03T13:28:14;24.50;99.90
15296;DHT22;7749;49.964;7.890;2023-04-03T13:33:34;25.90;99.90
15296;DHT22;7749;49.964;7.890;2023-04-03T13:36:19;26.50;99.90
15296;DHT22;7749;49.964;7.890;2023-04-03T13:39:00;25.00;99.90
15296;DHT22;7749;49.964;7.890;2023-04-03T13:41:38;24.90;99.90
15296;DHT22;7749;49.964;7.890;2023-04-03T13:46:46;22.70;99.90
15296;DHT22;7749;49.964;7.890;2023-04-03T13:51:49;23.70;99.90
15296;DHT22;7749;49.964;7.890;2023-04-03T13:54:37;24.00;99.90
15296;DHT22;7749;49.964;7.890;2023-04-03T13:57:14;25.40;99.90
15296;DHT22;7749;49.964;7.890;2023-04-03T13:59:43;25.80;99.90
15296;DHT22;7749;49.964;7.890;2023-04-03T14:02:20;25.50;99.90
15296;DHT22;7749;49.964;7.890;2023-04-03T14:04:57;25.00;99.90
15296;DHT22;7749;49.964;7.890;2023-04-03T14:07:29;25.80;99.90
15296;DHT22;7749;49.964;7.890;2023-04-03T14:09:58;26.40;99.90
15296;DHT22;7749;49.964;7.890;2023-04-03T14:12:27;26.40;99.90
15296;DHT22;7749;49.964;7.890;2023-04-03T14:15:00;26.60;99.90
15296;DHT22;7749;49.964;7.890;2023-04-03T14:17:29;24.60;99.90
15296;DHT22;7749;49.964;7.890;2023-04-03T14:19:58;25.10;99.90
15296;DHT22;7749;49.964;7.890;2023-04-03T14:22:30;25.50;99.90
15296;DHT22;7749;49.964;7.890;2023-04-03T14:24:58;25.60;99.90
15296;DHT22;7749;49.964;7.890;2023-04-03T14:27:50;25.90;99.90
15296;DHT22;7749;49.964;7.890;2023-04-03T14:30:31;26.10;99.90
15296;DHT22;7749;49.964;7.890;2023-04-03T14:33:00;26.40;99.90
15296;DHT22;7749;49.964;7.890;2023-04-03T14:35:28;25.30;99.90
15296;DHT22;7749;49.964;7.890;2023-04-03T14:37:56;25.20;99.90
15296;DHT22;7749;49.964;7.890;2023-04-03T14:40:26;24.20;99.90
15296;DHT22;7749;49.964;7.890;2023-04-03T14:42:54;25.40;99.90
15296;DHT22;7749;49.964;7.890;2023-04-03T14:45:24;26.10;99.90
15296;DHT22;7749;49.964;7.890;2023-04-03T14:47:54;27.00;99.90
15296;DHT22;7749;49.964;7.890;2023-04-03T14:50:24;26.70;99.90
15296;DHT22;7749;49.964;7.890;2023-04-03T14:52:56;27.10;99.90
15296;DHT22;7749;49.964;7.890;2023-04-03T14:55:25;26.70;99.90
15296;DHT22;7749;49.964;7.890;2023-04-03T14:57:53;26.30;99.90
15296;DHT22;7749;49.964;7.890;2023-04-03T15:00:22;26.00;99.90
15296;DHT22;7749;49.964;7.890;2023-04-03T15:02:52;25.10;99.90
15296;DHT22;7749;49.964;7.890;2023-04-03T15:05:20;25.80;99.90
15296;DHT22;7749;49.964;7.890;2023-04-03T15:07:50;25.30;99.90
15296;DHT22;7749;49.964;7.890;2023-04-03T15:10:28;24.90;99.90
15296;DHT22;7749;49.964;7.890;2023-04-03T15:12:58;24.90;99.90
15296;DHT22;7749;49.964;7.890;2023-04-03T15:15:28;25.60;99.90
15296;DHT22;7749;49.964;7.890;2023-04-03T15:17:57;25.60;99.90
15296;DHT22;7749;49.964;7.890;2023-04-03T15:20:27;25.80;99.90
15296;DHT22;7749;49.964;7.890;2023-04-03T15:22:55;25.40;99.90
15296;DHT22;7749;49.964;7.890;2023-04-03T15:25:24;25.40;99.90
15296;DHT22;7749;49.964;7.890;2023-04-03T15:27:54;25.60;99.90
15296;DHT22;7749;49.964;7.890;2023-04-03T15:30:22;24.90;99.90
15296;DHT22;7749;49.964;7.890;2023-04-03T15:32:50;24.60;99.90
15296;DHT22;7749;49.964;7.890;2023-04-03T15:35:18;24.80;99.90
15296;DHT22;7749;49.964;7.890;2023-04-03T15:37:46;24.70;99.90
15296;DHT22;7749;49.964;7.890;2023-04-03T15:40:14;24.50;99.90
15296;DHT22;7749;49.964;7.890;2023-04-03T15:42:41;24.30;99.90
15296;DHT22;7749;49.964;7.890;2023-04-03T15:45:10;24.80;99.90
15296;DHT22;7749;49.964;7.890;2023-04-03T15:47:38;24.30;99.90
15296;DHT22;7749;49.964;7.890;2023-04-03T15:50:06;23.90;99.90
15296;DHT22;7749;49.964;7.890;2023-04-03T15:52:36;24.40;99.90
15296;DHT22;7749;49.964;7.890;2023-04-03T15:55:04;24.30;99.90
15296;DHT22;7749;49.964;7.890;2023-04-03T15:57:33;23.70;99.90
15296;DHT22;7749;49.964;7.890;2023-04-03T16:00:06;24.10;99.90
15296;DHT22;7749;49.964;7.890;2023-04-03T16:02:34;24.10;99.90
15296;DHT22;7749;49.964;7.890;2023-04-03T16:05:02;23.40;99.90
15296;DHT22;7749;49.964;7.890;2023-04-03T16:07:30;23.60;99.90
15296;DHT22;7749;49.964;7.890;2023-04-03T16:09:58;24.00;99.90
15296;DHT22;7749;49.964;7.890;2023-04-03T16:12:25;23.60;99.90
15296;DHT22;7749;49.964;7.890;2023-04-03T16:14:53;22.30;99.90
15296;DHT22;7749;49.964;7.890;2023-04-03T16:17:21;22.10;99.90
15296;DHT22;7749;49.964;7.890;2023-04-03T16:19:48;22.40;99.90
15296;DHT22;7749;49.964;7.890;2023-04-03T16:22:16;23.00;99.90
15296;DHT22;7749;49.964;7.890;2023-04-03T16:24:44;23.40;99.90
15296;DHT22;7749;49.964;7.890;2023-04-03T16:27:12;23.50;99.90
15296;DHT22;7749;49.964;7.890;2023-04-03T16:29:39;23.80;99.90
15296;DHT22;7749;49.964;7.890;2023-04-03T16:32:07;23.20;99.90
15296;DHT22;7749;49.964;7.890;2023-04-03T16:34:35;23.30;99.90
15296;DHT22;7749;49.964;7.890;2023-04-03T16:37:03;22.50;99.90
15296;DHT22;7749;49.964;7.890;2023-04-03T16:39:30;22.00;99.90
15296;DHT22;7749;49.964;7.890;2023-04-03T16:41:58;20.60;99.90
15296;DHT22;7749;49.964;7.890;2023-04-03T16:44:26;19.00;99.90
15296;DHT22;7749;49.964;7.890;2023-04-03T16:46:53;17.70;99.90
15296;DHT22;7749;49.964;7.890;2023-04-03T16:49:21;15.90;99.90
15296;DHT22;7749;49.964;7.890;2023-04-03T16:51:49;14.90;99.90
15296;DHT22;7749;49.964;7.890;2023-04-03T16:54:17;13.80;99.90
15296;DHT22;7749;49.964;7.890;2023-04-03T16:56:44;12.90;99.90
15296;DHT22;7749;49.964;7.890;2023-04-03T16:59:12;12.30;99.90
15296;DHT22;7749;49.964;7.890;2023-04-03T17:01:40;11.90;99.90
15296;DHT22;7749;49.964;7.890;2023-04-03T17:04:07;11.40;99.90
15296;DHT22;7749;49.964;7.890;2023-04-03T17:06:35;11.20;99.90
15296;DHT22;7749;49.964;7.890;2023-04-03T17:09:03;11.10;99.90
15296;DHT22;7749;49.964;7.890;2023-04-03T17:11:32;11.00;99.90
15296;DHT22;7749;49.964;7.890;2023-04-03T17:13:59;10.70;99.90
15296;DHT22;7749;49.964;7.890;2023-04-03T17:16:28;10.50;99.90
15296;DHT22;7749;49.964;7.890;2023-04-03T17:18:56;10.40;99.90
15296;DHT22;7749;49.964;7.890;2023-04-03T17:21:24;10.20;99.90
15296;DHT22;7749;49.964;7.890;2023-04-03T17:23:57;10.10;99.90
15296;DHT22;7749;49.964;7.890;2023-04-03T17:26:26;10.10;99.90
15296;DHT22;7749;49.964;7.890;2023-04-03T17:28:54;10.10;99.90
15296;DHT22;7749;49.964;7.890;2023-04-03T17:31:22;9.90;99.90
15296;DHT22;7749;49.964;7.890;2023-04-03T17:33:50;9.80;99.90
15296;DHT22;7749;49.964;7.890;2023-04-03T17:36:17;9.90;99.90
15296;DHT22;7749;49.964;7.890;2023-04-03T17:38:45;9.80;99.90
15296;DHT22;7749;49.964;7.890;2023-04-03T17:41:15;9.70;99.90
15296;DHT22;7749;49.964;7.890;2023-04-03T17:43:42;9.70;99.90
15296;DHT22;7749;49.964;7.890;2023-04-03T17:46:10;9.80;99.90
15296;DHT22;7749;49.964;7.890;2023-04-03T17:48:39;9.80;99.90
15296;DHT22;7749;49.964;7.890;2023-04-03T17:51:10;9.60;99.90
15296;DHT22;7749;49.964;7.890;2023-04-03T17:53:38;9.50;99.90
15296;DHT22;7749;49.964;7.890;2023-04-03T17:56:33;9.30;99.90
15296;DHT22;7749;49.964;7.890;2023-04-03T17:58:59;9.20;99.90
15296;DHT22;7749;49.964;7.890;2023-04-03T18:01:32;9.20;99.90
15296;DHT22;7749;49.964;7.890;2023-04-03T18:04:02;9.20;99.90
15296;DHT22;7749;49.964;7.890;2023-04-03T18:06:36;9.10;99.90
15296;DHT22;7749;49.964;7.890;2023-04-03T18:09:09;9.10;99.90
15296;DHT22;7749;49.964;7.890;2023-04-03T18:11:37;9.10;99.90
15296;DHT22;7749;49.964;7.890;2023-04-03T18:14:06;8.90;99.90
15296;DHT22;7749;49.964;7.890;2023-04-03T18:16:35;8.90;99.90
15296;DHT22;7749;49.964;7.890;2023-04-03T18:19:03;8.90;99.90
15296;DHT22;7749;49.964;7.890;2023-04-03T18:21:35;8.80;99.90